createdAt,value
2022-09-15T02:37:28.967Z,98847.06
2022-09-15T02:40:00.203Z,98839.00
2022-09-15T02:42:28.970Z,98836.84
2022-09-15T02:44:55.975Z,98848.81
2022-09-15T02:47:25.656Z,98844.50
2022-09-15T02:49:52.214Z,98850.25
2022-09-15T02:52:20.347Z,98847.97
2022-09-15T02:54:50.608Z,98851.97
2022-09-15T02:57:17.847Z,98844.94
2022-09-15T02:59:45.211Z,98859.16
2022-09-15T03:02:12.449Z,98839.47
2022-09-15T03:04:41.863Z,98832.41
2022-09-15T03:07:09.516Z,98845.81
2022-09-15T03:09:36.706Z,98835.97
2022-09-15T03:12:09.377Z,98841.44
2022-09-15T03:14:35.915Z,98841.44
2022-09-15T03:17:02.717Z,98850.25
2022-09-15T03:19:29.280Z,98854.25
2022-09-15T03:21:55.927Z,98855.00
2022-09-15T03:24:22.692Z,98859.31
2022-09-15T03:26:51.138Z,98849.25
2022-09-15T03:29:20.906Z,98862.34
2022-09-15T03:31:48.541Z,98857.84
2022-09-15T03:34:20.076Z,98856.13
2022-09-15T03:36:46.657Z,98867.22
2022-09-15T03:39:13.620Z,98853.38
2022-09-15T03:41:40.563Z,98861.84
2022-09-15T03:44:07.750Z,98863.41
2022-09-15T03:46:38.603Z,98863.09
2022-09-15T03:49:05.565Z,98868.28
2022-09-15T03:51:36.060Z,98870.03
2022-09-15T03:54:06.324Z,98862.19
2022-09-15T03:56:34.744Z,98867.06
2022-09-15T03:59:02.509Z,98878.69
2022-09-15T04:01:31.038Z,98866.16
2022-09-15T04:03:59.235Z,98858.78
2022-09-15T04:06:26.579Z,98847.88
2022-09-15T04:08:54.660Z,98859.22
2022-09-15T04:11:25.182Z,98863.78
2022-09-15T04:13:53.581Z,98865.22
2022-09-15T04:16:22.752Z,98856.09
2022-09-15T04:18:49.743Z,98868.72
2022-09-15T04:21:21.779Z,98858.31
2022-09-15T04:23:48.734Z,98863.75
2022-09-15T04:26:21.459Z,98861.31
2022-09-15T04:28:48.351Z,98861.22
2022-09-15T04:31:16.800Z,98866.47
2022-09-15T04:33:45.096Z,98866.63
2022-09-15T04:36:13.614Z,98867.66
2022-09-15T04:38:42.073Z,98853.69
2022-09-15T04:41:18.910Z,98857.41
2022-09-15T04:43:45.853Z,98851.44
2022-09-15T04:46:12.993Z,98852.59
2022-09-15T04:48:40.078Z,98857.63
2022-09-15T04:51:08.890Z,98861.94
2022-09-15T04:53:36.873Z,98870.00
2022-09-15T04:56:07.073Z,98863.22
2022-09-15T04:58:37.311Z,98863.94
2022-09-15T05:01:08.227Z,98868.06
2022-09-15T05:03:47.910Z,98865.53
2022-09-15T05:06:17.610Z,98863.03
2022-09-15T05:08:48.041Z,98863.53
2022-09-15T05:11:16.700Z,98853.91
2022-09-15T05:13:43.751Z,98849.19
2022-09-15T05:16:12.560Z,98852.25
2022-09-15T05:18:40.254Z,98871.13
2022-09-15T05:21:08.805Z,98870.41
2022-09-15T05:23:36.465Z,98862.41
2022-09-15T05:26:05.555Z,98866.03
2022-09-15T05:28:35.955Z,98861.41
2022-09-15T05:31:07.115Z,98874.81
2022-09-15T05:33:34.497Z,98881.09
2022-09-15T05:36:01.760Z,98880.63
2022-09-15T05:38:30.729Z,98879.13
2022-09-15T05:41:02.436Z,98877.47
2022-09-15T05:43:30.935Z,98878.16
2022-09-15T05:46:01.527Z,98881.56
2022-09-15T05:48:28.498Z,98881.72
2022-09-15T05:50:58.565Z,98885.00
2022-09-15T05:53:26.409Z,98880.41
2022-09-15T05:55:54.907Z,98887.13
2022-09-15T05:58:21.701Z,98880.06
2022-09-15T06:00:48.248Z,98885.09
2022-09-15T06:03:17.086Z,98887.78
2022-09-15T06:05:43.646Z,98889.91
2022-09-15T06:08:11.038Z,98895.81
2022-09-15T06:10:41.006Z,98898.75
2022-09-15T06:13:08.034Z,98894.28
2022-09-15T06:15:34.617Z,98885.00
2022-09-15T06:18:04.443Z,98897.22
2022-09-15T06:20:32.934Z,98905.19
2022-09-15T06:22:59.546Z,98908.78
2022-09-15T06:25:26.109Z,98906.75
2022-09-15T06:27:52.747Z,98908.81
2022-09-15T06:30:19.462Z,98912.66
2022-09-15T06:32:48.557Z,98907.47
2022-09-15T06:35:15.424Z,98900.63
2022-09-15T06:37:43.335Z,98909.22
2022-09-15T06:40:11.153Z,98915.25
2022-09-15T06:42:38.079Z,98912.16
2022-09-15T06:45:05.207Z,98909.91
2022-09-15T06:47:31.767Z,98910.97
2022-09-15T06:49:58.460Z,98907.47
2022-09-15T06:52:25.021Z,98923.66
2022-09-15T06:54:54.040Z,98923.84
2022-09-15T06:57:20.878Z,98924.41
2022-09-15T06:59:47.525Z,98910.81
2022-09-15T07:02:14.141Z,98927.53
2022-09-15T07:04:40.858Z,98924.41
2022-09-15T07:07:07.585Z,98930.09
2022-09-15T07:09:34.214Z,98927.34
2022-09-15T07:12:02.633Z,98928.72
2022-09-15T07:14:29.561Z,98928.56
2022-09-15T07:16:56.453Z,98932.34
2022-09-15T07:19:23.068Z,98936.13
2022-09-15T07:21:49.568Z,98929.25
2022-09-15T07:24:16.652Z,98935.25
2022-09-15T07:26:43.484Z,98933.22
2022-09-15T07:29:11.363Z,98916.31
2022-09-15T07:31:39.011Z,98929.69
2022-09-15T07:34:06.598Z,98928.84
2022-09-15T07:36:33.332Z,98947.41
2022-09-15T07:39:00.102Z,98943.94
2022-09-15T07:41:30.230Z,98957.66
2022-09-15T07:43:59.042Z,98958.63
2022-09-15T07:46:30.474Z,98954.25
2022-09-15T07:48:57.226Z,98970.69
2022-09-15T07:51:24.834Z,98974.84
2022-09-15T07:53:52.439Z,98976.88
2022-09-15T07:56:19.520Z,98968.06
2022-09-15T07:58:48.341Z,98975.72
2022-09-15T08:01:16.963Z,98971.75
2022-09-15T08:03:46.644Z,98976.66
2022-09-15T08:06:14.829Z,98982.38
2022-09-15T08:08:42.396Z,98987.84
2022-09-15T08:11:13.070Z,98984.03
2022-09-15T08:13:42.060Z,98990.34
2022-09-15T08:16:19.509Z,98994.38
2022-09-15T08:18:48.226Z,98992.09
2022-09-15T08:21:18.044Z,98993.63
2022-09-15T08:23:44.738Z,98995.34
2022-09-15T08:26:14.356Z,98994.56
2022-09-15T08:28:42.250Z,98997.44
2022-09-15T08:31:11.134Z,99004.41
2022-09-15T08:33:43.197Z,99010.13
2022-09-15T08:36:14.262Z,99013.63
2022-09-15T08:38:42.631Z,99004.94
2022-09-15T08:41:14.704Z,99006.47
2022-09-15T08:43:46.403Z,99008.00
2022-09-15T08:46:17.759Z,99010.63
2022-09-15T08:48:49.963Z,99009.66
2022-09-15T08:51:23.446Z,99002.34
2022-09-15T08:53:55.920Z,99008.16
2022-09-15T08:56:24.580Z,98998.50
2022-09-15T08:58:51.228Z,99011.75
2022-09-15T09:01:31.941Z,99003.72
2022-09-15T09:04:22.378Z,99028.03
2022-09-15T09:07:03.558Z,99020.03
2022-09-15T09:09:39.439Z,99024.06
2022-09-15T09:12:31.641Z,99018.19
2022-09-15T09:15:11.575Z,99025.66
2022-09-15T09:17:59.218Z,99023.34
2022-09-15T09:20:42.312Z,99026.84
2022-09-15T09:23:14.986Z,99011.91
2022-09-15T09:25:42.443Z,99019.59
2022-09-15T09:28:24.050Z,99021.06
2022-09-15T09:30:50.970Z,99026.66
2022-09-15T09:33:29.928Z,99023.44
2022-09-15T09:36:00.464Z,99021.03
2022-09-15T09:38:31.458Z,99016.13
2022-09-15T09:41:02.129Z,99033.25
2022-09-15T09:43:30.716Z,99031.28
2022-09-15T09:45:57.561Z,99034.53
2022-09-15T09:48:27.074Z,99018.53
2022-09-15T09:50:55.505Z,99023.84
2022-09-15T09:53:29.494Z,99023.22
2022-09-15T09:56:15.909Z,99025.41
2022-09-15T09:58:43.157Z,99029.28
2022-09-15T10:01:11.693Z,99024.94
2022-09-15T10:03:38.548Z,99021.97
2022-09-15T10:06:07.427Z,99024.75
2022-09-15T10:08:37.172Z,99021.75
2022-09-15T10:11:05.860Z,99026.88
2022-09-15T10:13:36.094Z,99032.97
2022-09-15T10:16:06.536Z,99029.53
2022-09-15T10:18:36.132Z,99030.47
2022-09-15T10:21:05.706Z,99030.34
2022-09-15T10:23:35.927Z,99031.09
2022-09-15T10:26:22.513Z,99024.72
2022-09-15T10:29:12.658Z,99031.09
2022-09-15T10:31:40.508Z,99025.72
2022-09-15T10:34:24.950Z,99023.69
2022-09-15T10:36:53.902Z,99013.59
2022-09-15T10:39:27.220Z,99014.16
2022-09-15T10:42:03.846Z,99017.63
2022-09-15T10:44:36.878Z,99011.56
2022-09-15T10:47:14.352Z,99017.72
2022-09-15T10:49:54.179Z,99004.59
2022-09-15T10:52:31.798Z,99011.84
2022-09-15T10:55:15.838Z,99007.94
2022-09-15T10:57:56.996Z,99001.81
2022-09-15T11:00:28.425Z,99003.34
2022-09-15T11:03:12.861Z,99000.56
2022-09-15T11:05:53.048Z,99008.47
2022-09-15T11:08:42.357Z,99017.88
2022-09-15T11:11:18.848Z,99021.06
2022-09-15T11:14:00.026Z,99022.50
2022-09-15T11:16:34.716Z,99018.22
2022-09-15T11:19:13.032Z,99020.56
2022-09-15T11:21:46.071Z,99026.56
2022-09-15T11:24:34.995Z,99017.91
2022-09-15T11:27:08.077Z,99025.22
2022-09-15T11:29:52.524Z,99023.03
2022-09-15T11:32:24.521Z,99027.84
2022-09-15T11:34:55.797Z,99030.28
2022-09-15T11:37:26.436Z,99033.19
2022-09-15T11:39:58.813Z,99036.13
2022-09-15T11:42:35.563Z,99037.56
2022-09-15T11:45:03.154Z,99047.25
2022-09-15T11:47:36.308Z,99039.41
2022-09-15T11:50:14.348Z,99045.31
2022-09-15T11:52:49.701Z,99035.59
2022-09-15T11:55:25.166Z,99054.78
2022-09-15T11:58:00.763Z,99052.66
2022-09-15T12:00:27.600Z,99061.66
2022-09-15T12:03:06.211Z,99051.59
2022-09-15T12:05:39.308Z,99055.22
2022-09-15T12:08:15.916Z,99058.84
2022-09-15T12:10:46.553Z,99059.13
2022-09-15T12:13:18.073Z,99056.22
2022-09-15T12:15:46.313Z,99044.50
2022-09-15T12:18:37.741Z,99049.81
2022-09-15T12:21:15.331Z,99049.69
2022-09-15T12:23:47.804Z,99048.50
2022-09-15T12:26:17.897Z,99063.41
2022-09-15T12:28:57.642Z,99067.69
2022-09-15T12:31:30.485Z,99076.50
2022-09-15T12:34:00.116Z,99074.44
2022-09-15T12:36:48.120Z,99061.38
2022-09-15T12:39:28.176Z,99065.72
2022-09-15T12:41:57.488Z,99079.09
2022-09-15T12:44:32.216Z,99087.38
2022-09-15T12:47:00.784Z,99090.72
2022-09-15T12:49:32.713Z,99081.94
2022-09-15T12:52:03.269Z,99079.97
2022-09-15T12:54:32.303Z,99083.31
2022-09-15T12:57:00.282Z,99087.47
2022-09-15T12:59:28.707Z,99099.72
2022-09-15T13:01:56.322Z,99096.34
2022-09-15T13:04:56.601Z,99094.97
2022-09-15T13:07:35.678Z,99096.66
2022-09-15T13:10:28.533Z,99098.09
2022-09-15T13:13:10.047Z,99093.09
2022-09-15T13:15:47.228Z,99089.09
2022-09-15T13:18:18.450Z,99072.59
2022-09-15T13:20:53.349Z,99083.28
2022-09-15T13:23:22.842Z,99072.84
2022-09-15T13:25:52.490Z,99080.34
2022-09-15T13:28:20.444Z,99075.22
2022-09-15T13:31:04.533Z,99071.47
2022-09-15T13:39:58.494Z,99051.22
2022-09-15T13:42:39.852Z,99060.16
2022-09-15T13:45:35.890Z,99060.41
2022-09-15T13:48:21.945Z,99056.75
2022-09-15T13:50:56.313Z,99051.44
2022-09-15T13:53:50.170Z,99051.81
2022-09-15T13:56:24.328Z,99049.78
2022-09-15T13:59:03.415Z,99045.13
2022-09-15T14:01:39.575Z,99050.84
2022-09-15T14:04:15.781Z,99045.34
2022-09-15T14:06:44.769Z,99048.28
2022-09-15T14:09:15.184Z,99057.19
2022-09-15T14:11:46.600Z,99048.47
2022-09-15T14:14:39.832Z,99052.53
2022-09-15T14:17:21.816Z,99063.19
2022-09-15T14:19:51.372Z,99062.94
2022-09-15T14:22:27.429Z,99060.84
2022-09-15T14:24:55.678Z,99049.72
2022-09-15T14:27:26.417Z,99042.53
2022-09-15T14:29:54.717Z,99038.84
2022-09-15T14:32:22.228Z,99049.94
2022-09-15T14:34:55.998Z,99042.97
2022-09-15T14:37:26.785Z,99045.50
2022-09-15T14:39:56.706Z,99043.03
2022-09-15T14:42:25.710Z,99040.03
2022-09-15T14:47:44.304Z,99027.06
2022-09-15T14:50:16.293Z,99047.97
2022-09-15T14:52:46.300Z,99048.94
2022-09-15T14:55:16.819Z,99038.91
2022-09-15T14:57:52.893Z,99045.13
2022-09-15T15:00:25.593Z,99046.19
2022-09-15T15:03:06.187Z,99042.50
2022-09-15T15:05:43.978Z,99040.13
2022-09-15T15:08:19.913Z,99046.84
2022-09-15T15:10:46.651Z,99045.56
2022-09-15T15:13:16.308Z,99052.28
2022-09-15T15:15:44.006Z,99042.53
2022-09-15T15:18:49.137Z,99050.81
2022-09-15T15:21:41.939Z,99044.13
2022-09-15T15:24:16.942Z,99048.06
2022-09-15T15:26:45.290Z,99042.78
2022-09-15T15:29:40.489Z,99036.59
2022-09-15T15:32:12.198Z,99039.16
2022-09-15T15:34:39.350Z,99038.69
2022-09-15T15:37:22.341Z,99028.84
2022-09-15T15:39:52.516Z,99041.03
2022-09-15T15:42:20.254Z,99041.72
2022-09-15T15:45:01.565Z,99046.50
2022-09-15T15:47:30.884Z,99046.56
2022-09-15T15:50:16.564Z,99050.38
2022-09-15T15:52:44.548Z,99050.94
2022-09-15T15:55:14.497Z,99040.59
2022-09-15T15:57:41.255Z,99048.63
2022-09-15T16:00:21.087Z,99043.09
2022-09-15T16:02:49.315Z,99040.72
2022-09-15T16:05:15.928Z,99043.69
2022-09-15T16:07:46.993Z,99053.19
2022-09-15T16:10:16.310Z,99049.88
2022-09-15T16:12:42.913Z,99056.59
2022-09-15T16:15:12.317Z,99061.59
2022-09-15T16:17:43.065Z,99060.97
2022-09-15T16:20:14.639Z,99062.03
2022-09-15T16:22:41.622Z,99054.16
2022-09-15T16:25:16.526Z,99064.84
2022-09-15T16:27:43.736Z,99049.31
2022-09-15T16:30:11.018Z,99060.94
2022-09-15T16:32:38.139Z,99066.34
2022-09-15T16:35:16.180Z,99064.31
2022-09-15T16:37:42.801Z,99061.56
2022-09-15T16:40:12.101Z,99061.22
2022-09-15T16:43:02.990Z,99052.28
2022-09-15T16:45:36.472Z,99049.53
2022-09-15T16:48:08.166Z,99060.50
2022-09-15T16:50:42.650Z,99062.25
2022-09-15T16:53:13.722Z,99045.88
2022-09-15T16:55:57.185Z,99062.28
2022-09-15T16:58:33.512Z,99072.09
2022-09-15T17:01:06.126Z,99077.31
2022-09-15T17:03:37.546Z,99055.72
2022-09-15T17:06:05.634Z,99078.63
2022-09-15T17:08:33.360Z,99073.66
2022-09-15T17:13:55.332Z,99081.53
2022-09-15T17:16:22.119Z,99084.63
2022-09-15T17:18:48.952Z,99067.03
2022-09-15T17:21:17.561Z,99092.16
2022-09-15T17:23:45.790Z,99091.47
2022-09-15T17:26:17.411Z,99079.38
2022-09-15T17:28:44.345Z,99092.72
2022-09-15T17:31:15.822Z,99082.75
2022-09-15T17:33:43.768Z,99073.44
2022-09-15T17:36:10.704Z,99080.53
2022-09-15T17:38:38.093Z,99083.25
2022-09-15T17:41:05.312Z,99081.34
2022-09-15T17:43:32.101Z,99077.63
2022-09-15T17:46:01.443Z,99083.88
2022-09-15T17:48:43.946Z,99069.09
2022-09-15T17:51:16.647Z,99087.31
2022-09-15T17:53:47.165Z,99090.25
2022-09-15T17:56:16.598Z,99098.34
2022-09-15T17:58:45.360Z,99087.50
2022-09-15T18:01:19.069Z,99073.66
2022-09-15T18:03:47.369Z,99082.78
2022-09-15T18:06:16.140Z,99090.66
2022-09-15T18:08:43.080Z,99081.94
2022-09-15T18:11:14.986Z,99094.38
2022-09-15T18:13:41.888Z,99081.63
2022-09-15T18:16:16.719Z,99076.59
2022-09-15T18:18:47.891Z,99085.06
2022-09-15T18:21:23.555Z,99101.28
2022-09-15T18:23:52.139Z,99081.25
2022-09-15T18:26:26.265Z,99103.53
2022-09-15T18:28:53.734Z,99089.84
2022-09-15T18:31:23.467Z,99104.63
2022-09-15T18:33:52.314Z,99112.16
2022-09-15T18:36:22.350Z,99102.22
2022-09-15T18:38:52.448Z,99094.75
2022-09-15T18:41:19.356Z,99113.56
2022-09-15T18:43:46.088Z,99110.00
2022-09-15T18:46:13.738Z,99119.81
2022-09-15T18:48:40.625Z,99119.53
2022-09-15T18:51:13.826Z,99112.47
2022-09-15T18:53:49.747Z,99093.19
2022-09-15T18:56:19.162Z,99114.53
2022-09-15T18:58:45.829Z,99125.03
2022-09-15T19:01:12.565Z,99123.66
2022-09-15T19:03:44.096Z,99136.22
2022-09-15T19:06:13.151Z,99132.38
2022-09-15T19:08:39.800Z,99137.78
2022-09-15T19:11:07.313Z,99136.38
2022-09-15T19:13:33.954Z,99142.19
2022-09-15T19:16:02.888Z,99131.44
2022-09-15T19:18:29.713Z,99140.63
2022-09-15T19:21:04.802Z,99133.78
2022-09-15T19:23:33.289Z,99138.50
2022-09-15T19:26:02.311Z,99152.44
2022-09-15T19:28:31.924Z,99153.28
2022-09-15T19:30:58.989Z,99154.47
2022-09-15T19:33:25.791Z,99148.03
2022-09-15T19:36:04.942Z,99168.22
2022-09-15T19:38:44.366Z,99162.56
2022-09-15T19:41:13.722Z,99145.50
2022-09-15T19:43:42.419Z,99156.97
2022-09-15T19:46:13.755Z,99125.00
2022-09-15T19:48:42.792Z,99137.78
2022-09-15T19:51:16.695Z,99138.00
2022-09-15T19:53:45.926Z,99136.97
2022-09-15T19:56:39.484Z,99144.97
2022-09-15T19:59:12.943Z,99175.81
2022-09-15T20:01:40.334Z,99152.75
2022-09-15T20:04:10.224Z,99156.91
2022-09-15T20:06:37.345Z,99164.69
2022-09-15T20:09:09.769Z,99163.97
2022-09-15T20:11:38.154Z,99149.13
2022-09-15T20:14:09.057Z,99171.09
2022-09-15T20:16:39.111Z,99169.31
2022-09-15T20:19:11.453Z,99152.16
2022-09-15T20:21:51.402Z,99157.97
2022-09-15T20:24:25.420Z,99176.16
2022-09-15T20:27:12.990Z,99181.19
2022-09-15T20:29:48.516Z,99188.16
2022-09-15T20:32:30.289Z,99183.81
2022-09-15T20:35:06.258Z,99189.91
2022-09-15T20:37:37.665Z,99189.91
2022-09-15T20:40:07.140Z,99185.66
2022-09-15T20:42:41.114Z,99188.41
2022-09-15T20:45:10.367Z,99185.38
2022-09-15T20:47:50.239Z,99207.69
2022-09-15T20:50:18.370Z,99176.88
2022-09-15T20:52:45.369Z,99185.97
2022-09-15T20:55:14.894Z,99192.06
2022-09-15T20:57:53.301Z,99194.78
2022-09-15T21:00:57.222Z,99204.47
2022-09-15T21:03:23.953Z,99207.38
2022-09-15T21:05:59.144Z,99204.81
2022-09-15T21:08:28.509Z,99216.50
2022-09-15T21:10:56.615Z,99213.75
2022-09-15T21:13:23.629Z,99206.25
2022-09-15T21:18:43.239Z,99202.50
2022-09-15T21:21:26.284Z,99210.97
2022-09-15T21:24:01.948Z,99200.59
2022-09-15T21:26:34.923Z,99196.50
2022-09-15T21:29:11.511Z,99220.34
2022-09-15T21:31:48.333Z,99208.50
2022-09-15T21:34:19.168Z,99203.44
2022-09-15T21:37:00.269Z,99219.78
2022-09-15T21:39:38.838Z,99222.63
2022-09-15T21:42:14.691Z,99192.22
2022-09-15T21:44:48.103Z,99212.53
2022-09-15T21:47:16.916Z,99201.41
2022-09-15T21:49:43.813Z,99220.28
2022-09-15T21:52:12.448Z,99198.41
2022-09-15T21:54:39.437Z,99193.22
2022-09-15T21:57:07.967Z,99220.66
2022-09-15T21:59:39.300Z,99230.25
2022-09-15T22:02:06.376Z,99228.13
2022-09-15T22:04:36.606Z,99218.72
2022-09-15T22:07:09.510Z,99202.81
2022-09-15T22:09:36.424Z,99204.69
2022-09-15T22:12:03.468Z,99231.25
2022-09-15T22:14:32.952Z,99209.25
2022-09-15T22:17:01.566Z,99225.22
2022-09-15T22:19:37.118Z,99225.66
2022-09-15T22:22:04.102Z,99236.19
2022-09-15T22:24:37.853Z,99231.03
2022-09-15T22:27:20.492Z,99203.75
2022-09-15T22:29:59.351Z,99233.34
2022-09-15T22:32:29.473Z,99224.28
2022-09-15T22:35:00.408Z,99232.66
2022-09-15T22:37:42.525Z,99230.94
2022-09-15T22:40:26.058Z,99220.72
2022-09-15T22:42:57.682Z,99222.97
2022-09-15T22:45:41.899Z,99237.44
2022-09-15T22:48:14.099Z,99245.81
2022-09-15T22:50:49.147Z,99229.63
2022-09-15T22:53:17.859Z,99207.97
2022-09-15T22:55:46.305Z,99211.31
2022-09-15T22:58:17.443Z,99205.41
2022-09-15T23:00:52.112Z,99221.09
2022-09-15T23:03:21.734Z,99212.59
2022-09-15T23:05:58.453Z,99221.00
2022-09-15T23:08:29.926Z,99200.03
2022-09-15T23:11:07.919Z,99195.72
2022-09-15T23:13:35.153Z,99230.78
2022-09-15T23:16:05.585Z,99220.41
2022-09-15T23:18:49.243Z,99212.47
2022-09-15T23:21:21.707Z,99222.41
2022-09-15T23:23:51.392Z,99196.44
2022-09-15T23:26:40.200Z,99231.06
2022-09-15T23:29:07.071Z,99221.56
2022-09-15T23:31:35.810Z,99207.13
2022-09-15T23:34:05.970Z,99201.34
2022-09-15T23:36:34.665Z,99204.94
2022-09-15T23:39:07.261Z,99222.09
2022-09-15T23:41:48.735Z,99207.84
2022-09-15T23:44:26.616Z,99230.03
2022-09-15T23:46:58.672Z,99226.03
2022-09-15T23:49:47.757Z,99221.25
2022-09-15T23:52:14.900Z,99208.81
2022-09-15T23:54:46.959Z,99223.84
2022-09-15T23:57:15.325Z,99200.63
2022-09-15T23:59:44.928Z,99210.28
